Flight Track Log - Related Links

Times and Time Zones

All times are in EDT time to prevent confusion due to time zone crossing. See the N30VP flight status page for this flight to view local times or setup timezone preferences in your user account.

Time Position Orientation Groundspeed Altitude Reporting Facility
EDT Latitude Longitude Course Direction KTS MPH feet Rate Location/Type
Sun 10:47:30 AM 31.2950 -81.3681 12° North 328 377 9,800  Level Jacksonville Center
Sun 10:48:30 AM 31.3700 -81.3500 12° North 283 326 13,300 3,300 Climbing Jacksonville Center
Sun 10:49:30 AM 31.4431 -81.3389 North 278 320 16,400 2,800 Climbing Jacksonville Center
Sun 10:50:30 AM 31.5389 -81.3178 11° North 309 356 18,900 2,300 Climbing Jacksonville Center
Sun 10:51:30 AM 31.6283 -81.3017 North 341 392 21,000 2,050 Climbing Jacksonville Center
Sun 10:52:30 AM 31.7450 -81.2803 North 370 426 23,000 1,400 Climbing Jacksonville Center
Sun 10:53:30 AM 31.8575 -81.2586 North 398 458 23,800 1,000 Climbing Jacksonville Center
Sun 10:54:30 AM 31.9700 -81.2369 North 424 488 25,000 900 Climbing Jacksonville Center
Sun 10:55:30 AM 32.0886 -81.2203 North 430 495 25,600 2,400 Climbing Jacksonville Center
Sun 10:56:30 AM 32.1953 -81.2281 356° North 405 466 29,800 2,850 Climbing Jacksonville Center
Sun 10:57:30 AM 32.2978 -81.2361 356° North 383 441 31,300 1,650 Climbing Jacksonville Center
Sun 10:58:30 AM 32.4022 -81.2439 356° North 377 434 33,100 1,650 Climbing Jacksonville Center
Sun 10:59:30 AM 32.5211 -81.2492 358° North 377 434 34,600 1,400 Climbing Jacksonville Center
Sun 11:00:30 AM 32.6194 -81.2547 357° North 385 443 35,900 1,150 Climbing Jacksonville Center
Sun 11:01:30 AM 32.7297 -81.2331 North 385 443 36,900 650 Climbing Jacksonville Center
Sun 11:02:30 AM 32.8439 -81.1864 19° North 404 465 37,200 650 Climbing Jacksonville Center
Sun 11:03:30 AM 32.9561 -81.1372 20° North 417 480 38,200 800 Climbing Jacksonville Center
Sun 11:04:30 AM 33.0700 -81.0906 19° North 423 487 38,800 400 Climbing Jacksonville Center
Sun 11:05:30 AM 33.1842 -81.0436 19° North 423 487 39,000 99 Climbing Jacksonville Center
Sun 11:06:31 AM 33.3003 -80.9939 20° North 428 493 39,000  Level Jacksonville Center
Sun 11:07:30 AM 33.4269 -80.9414 19° North 428 493 39,000  Level Jacksonville Center
Sun 11:08:30 AM 33.5431 -80.8914 20° North 433 498 39,000  Level Jacksonville Center
Sun 11:09:30 AM 33.6569 -80.8414 20° North 433 498 39,000  Level Jacksonville Center
Sun 11:10:30 AM 33.7750 -80.7889 20° North 443 510 39,000  Level Jacksonville Center
Sun 11:11:31 AM 33.8889 -80.7411 19° North 443 510 39,000  Level Jacksonville Center
Sun 11:12:30 AM 34.0050 -80.6906 20° North 443 510 39,000  Level Jacksonville Center
Sun 11:14:57 AM 34.2694 -80.5775 19° North 435 501 39,000  Level Atlanta Center
Sun 11:15:57 AM 34.3889 -80.5247 20° North 435 501 39,000  Level Atlanta Center
Sun 11:16:57 AM 34.5042 -80.4694 22° Northeast 441 507 39,000  Level Atlanta Center
Sun 11:17:57 AM 34.6175 -80.4219 19° North 441 507 39,000  Level Atlanta Center
Sun 11:18:57 AM 34.7369 -80.3661 21° North 441 507 39,000  Level Atlanta Center
Sun 11:19:57 AM 34.8544 -80.3156 19° North 441 507 39,000  Level Atlanta Center
Sun 11:20:57 AM 34.9694 -80.2622 21° North 441 507 39,000  Level Atlanta Center
Sun 11:21:57 AM 35.0869 -80.2111 20° North 441 507 39,000  Level Atlanta Center
Sun 11:22:57 AM 35.2083 -80.1547 21° North 436 502 39,000  Level Atlanta Center
Sun 11:23:57 AM 35.3275 -80.1033 19° North 443 510 39,000  Level Atlanta Center
Sun 11:24:57 AM 35.4469 -80.0492 20° North 443 510 39,000  Level Atlanta Center
Sun 11:26:03 AM 35.5572 -80.0039 18° North 435 501 39,000  Level Washington Center
Sun 11:27:04 AM 35.6717 -79.9539 20° North 435 501 39,000  Level Washington Center
Sun 11:28:04 AM 35.7906 -79.9017 20° North 435 501 39,000  Level Washington Center
Sun 11:29:01 AM 35.9072 -79.8464 21° North 435 501 39,000  Level Washington Center
Sun 11:30:02 AM 36.0217 -79.7936 20° North 435 501 39,000  Level Washington Center
Sun 11:31:03 AM 36.1428 -79.7331 22° Northeast 435 501 39,000 -347 Level Washington Center
Sun 11:32:03 AM 36.2594 -79.6800 20° North 435 501 38,300 -1,091 Descending Washington Center
Sun 11:33:04 AM 36.3694 -79.6317 19° North 429 494 36,800 -1,785 Descending Washington Center
Sun 11:34:04 AM 36.4800 -79.5753 22° Northeast 429 494 34,700 -2,085 Descending Washington Center
Sun 11:35:02 AM 36.5900 -79.5267 20° North 424 488 32,700 -1,866 Descending Washington Center
Sun 11:36:03 AM 36.7044 -79.4728 21° North 419 482 31,000 -1,770 Descending Washington Center
Sun 11:37:04 AM 36.8211 -79.4189 20° North 429 494 29,100 -1,008 Descending Washington Center
Sun 11:38:02 AM 36.9281 -79.3958 10° North 433 498 29,000 -51 Descending Washington Center
Sun 11:39:02 AM 37.0475 -79.3783 North 428 493 29,000 -248 Level Washington Center
Sun 11:40:03 AM 37.1639 -79.3969 353° North 422 486 28,500 -1,591 Descending Washington Center
Sun 11:42:03 AM 37.4072 -79.4222 355° North 420 483 24,200 -1,854 Descending Washington Center
Sun 11:43:01 AM 37.5069 -79.3697 23° Northeast 420 483 23,000 -605 Descending Washington Center
Sun 11:44:02 AM 37.6242 -79.2864 29° Northeast 426 490 23,000  Level Washington Center
Sun 11:45:03 AM 37.7200 -79.2175 30° Northeast 432 497 23,000 -358 Level Washington Center
Sun 11:46:16 AM 37.8458 -79.1261 30° Northeast 432 497 22,200 -1,328 Descending Washington Center
Sun 11:47:14 AM 37.9608 -79.0447 29° Northeast 432 497 20,100 -1,866 Descending Washington Center
Sun 11:48:15 AM 38.0631 -78.9703 30° Northeast 432 497 18,500 -1,525 Descending Washington Center
Sun 11:49:16 AM 38.1633 -78.8956 30° Northeast 426 490 17,000 -1,537 Descending Washington Center
Sun 11:50:16 AM 38.2611 -78.8231 30° Northeast 416 479 15,400 -1,576 Descending Washington Center
Sun 11:51:14 AM 38.3442 -78.7606 31° Northeast 401 461 13,900 -1,525 Descending Washington Center
Sun 11:52:14 AM 38.4428 -78.7383 10° North 359 413 12,400 -1,438 Descending Washington Center
Sun 11:53:15 AM 38.5406 -78.7478 356° North 359 413 11,000 -1,230 Descending Washington Center
Sun 11:54:16 AM 38.6236 -78.7567 355° North 325 374 9,900 -1,220 Descending Washington Center
Sun 11:55:13 AM 38.6922 -78.7650 355° North 280 322 8,600 -1,424 Descending Washington Center
Sun 11:56:14 AM 38.7631 -78.7681 358° North 258 297 7,100 -738 Descending Washington Center
Sun 11:57:15 AM 38.8089 -78.6872 54° Northeast 235 270 7,100 -50 Level Washington Center
Sun 11:58:15 AM 38.8528 -78.5986 58° Northeast 253 291 7,000 -446 Descending Washington Center
Sun 11:59:16 AM 38.8925 -78.5175 58° Northeast 265 305 6,200 -942 Descending Washington Center
Sun 12:00:16 PM 38.9339 -78.4364 57° Northeast 270 311 5,100 -600 Descending Washington Center
Sun 12:01:16 PM 38.9692 -78.3631 58° Northeast 257 296 5,000 -407 Descending Washington Center
Sun 12:02:14 PM 39.0061 -78.2869 58° Northeast 252 290 4,300 -1,475 Descending Washington Center
Sun 12:03:14 PM 39.0806 -78.2256 33° Northeast 252 290 2,100 -793 Descending Washington Center
Sun 12:04:15 PM 39.1039 -78.2050 34° Northeast 175 201 2,700 595 Climbing Washington Center
Sun 12:05:15 PM 39.1150 -78.1733 66° East 82 94 3,300 347 Climbing Washington Center
Sun 12:06:16 PM 39.1014 -78.1300 112° Southeast 94 108 3,400  Climbing Washington Center
Sun 12:07:16 PM 39.0856 -78.0892 117° Southeast 129 148 3,300 -102 Descending Washington Center
Sun 12:08:14 PM 39.0864 -78.0464 89° East 136 157 3,200 -103 Descending Washington Center
Sun 12:10:00 PM 39.1333 -78.1333 322° Northwest  Level FlightAware Approximate
Sun 12:17:00 PM 39.1435 -78.1444 322° Northwest  Level Estimated
Sun 12:18:00 PM 39.1435 -78.1444 322° Northwest  Level Estimated
Sun 12:19:00 PM 39.1435 -78.1444 322° Northwest  Level Estimated
Sun 12:20:00 PM 39.1435 -78.1444 322° Northwest  Level Estimated
Sun 12:21:00 PM 39.1435 -78.1444 322° Northwest  Level Estimated
Sun 12:22:00 PM 39.1435 -78.1444 322° Northwest  Level Estimated
Sun 12:23:00 PM 39.1435 -78.1444 322° Northwest  Level Estimated
Sun 12:24:00 PM 39.1435 -78.1444 322° Northwest  Level Estimated
Sun 12:25:00 PM 39.1435 -78.1444 322° Northwest  Level Estimated
Sun 12:26:00 PM 39.1435 -78.1444 322° Northwest  Level Estimated

Login

Don't have an account? Register now (free) for customized features, flight alerts, and more!